createdAt,value
2017-02-22T00:00:52.277Z,5.6
2017-02-22T00:01:55.235Z,5.6
2017-02-22T00:02:57.700Z,5.6
2017-02-22T00:04:00.158Z,5.6
2017-02-22T00:05:03.116Z,5.6
2017-02-22T00:06:05.569Z,5.6
2017-02-22T00:07:08.187Z,5.5
2017-02-22T00:08:10.674Z,5.5
2017-02-22T00:09:13.487Z,5.5
2017-02-22T00:10:15.937Z,5.5
2017-02-22T00:11:18.397Z,5.5
2017-02-22T00:12:20.864Z,5.5
2017-02-22T00:13:24.883Z,5.5
2017-02-22T00:15:28.734Z,5.5
2017-02-22T00:16:31.199Z,5.5
2017-02-22T00:17:34.179Z,5.5
2017-02-22T00:19:39.417Z,5.5
2017-02-22T00:20:41.872Z,5.4
2017-02-22T00:21:44.357Z,5.5
2017-02-22T00:22:46.825Z,5.4
2017-02-22T00:23:49.292Z,5.5
2017-02-22T00:24:51.586Z,5.5
2017-02-22T00:25:54.538Z,5.5
2017-02-22T00:26:56.830Z,5.5
2017-02-22T00:27:59.801Z,5.5
2017-02-22T00:29:02.251Z,5.5
2017-02-22T00:30:04.702Z,5.5
2017-02-22T00:31:07.572Z,5.5
2017-02-22T00:32:10.046Z,5.5
2017-02-22T00:33:12.330Z,5.5
2017-02-22T00:34:15.294Z,5.5
2017-02-22T00:35:18.104Z,5.5
2017-02-22T00:36:20.588Z,5.5
2017-02-22T00:37:23.040Z,5.5
2017-02-22T00:38:25.503Z,5.5
2017-02-22T00:39:27.998Z,5.4
2017-02-22T00:40:30.446Z,5.4
2017-02-22T00:42:35.818Z,5.4
2017-02-22T00:43:38.271Z,5.4
2017-02-22T00:44:40.734Z,5.5
2017-02-22T00:45:44.207Z,5.3
2017-02-22T00:46:46.173Z,5.4
2017-02-22T00:47:48.625Z,5.4
2017-02-22T00:48:51.086Z,5.4
2017-02-22T00:49:54.045Z,5.4
2017-02-22T00:50:56.331Z,5.4
2017-02-22T00:51:59.258Z,5.3
2017-02-22T00:53:02.239Z,5.4
2017-02-22T00:54:04.181Z,5.4
2017-02-22T00:55:06.626Z,5.4
2017-02-22T00:56:08.921Z,5.4
2017-02-22T00:57:12.405Z,5.4
2017-02-22T00:58:14.355Z,5.5
2017-02-22T00:59:17.367Z,5.4
2017-02-22T01:00:19.818Z,5.4
2017-02-22T01:01:22.104Z,5.4
2017-02-22T01:02:24.555Z,5.4
2017-02-22T01:03:27.517Z,5.4
2017-02-22T01:04:29.975Z,5.4
2017-02-22T01:05:32.421Z,5.4
2017-02-22T01:06:35.418Z,5.4
2017-02-22T01:07:38.400Z,5.4
2017-02-22T01:08:40.349Z,5.4
2017-02-22T01:09:42.798Z,5.4
2017-02-22T01:10:45.773Z,5.4
2017-02-22T01:11:48.060Z,5.4
2017-02-22T01:12:51.050Z,5.4
2017-02-22T01:13:53.008Z,5.4
2017-02-22T01:14:56.018Z,5.4
2017-02-22T01:15:58.492Z,5.5
2017-02-22T01:17:00.955Z,5.4
2017-02-22T01:18:03.447Z,5.4
2017-02-22T01:19:05.917Z,5.5
2017-02-22T01:20:08.712Z,5.5
2017-02-22T01:21:11.193Z,5.5
2017-02-22T01:22:13.640Z,5.5
2017-02-22T01:23:16.593Z,5.5
2017-02-22T01:24:19.051Z,5.5
2017-02-22T01:25:21.333Z,5.5
2017-02-22T01:26:24.308Z,5.5
2017-02-22T01:27:26.770Z,5.5
2017-02-22T01:28:29.241Z,5.5
2017-02-22T01:29:31.691Z,5.5
2017-02-22T01:30:34.645Z,5.5
2017-02-22T01:31:37.093Z,5.5
2017-02-22T01:32:39.551Z,5.5
2017-02-22T01:33:42.048Z,5.5
2017-02-22T01:34:45.005Z,5.5
2017-02-22T01:35:47.467Z,5.5
2017-02-22T01:37:52.331Z,5.5
2017-02-22T01:38:55.317Z,5.5
2017-02-22T01:39:57.790Z,5.5
2017-02-22T01:41:00.243Z,5.5
2017-02-22T01:42:02.705Z,5.5
2017-02-22T01:43:05.682Z,5.5
2017-02-22T01:44:08.686Z,5.5
2017-02-22T01:45:10.472Z,5.5
2017-02-22T01:46:12.969Z,5.5
2017-02-22T01:47:15.755Z,5.5
2017-02-22T01:48:18.040Z,5.5
2017-02-22T01:49:20.998Z,5.5
2017-02-22T01:50:23.451Z,5.5
2017-02-22T01:51:25.911Z,5.5
2017-02-22T01:52:28.861Z,5.5
2017-02-22T01:53:31.326Z,5.5
2017-02-22T01:54:33.779Z,5.5
2017-02-22T01:55:36.230Z,5.5
2017-02-22T01:56:39.184Z,5.5
2017-02-22T01:57:41.642Z,5.5
2017-02-22T01:59:47.004Z,5.5
2017-02-22T02:00:49.464Z,5.5
2017-02-22T02:01:51.762Z,5.5
2017-02-22T02:03:57.130Z,5.5
2017-02-22T02:04:59.424Z,5.5
2017-02-22T02:06:02.385Z,5.5
2017-02-22T02:07:05.377Z,5.5
2017-02-22T02:08:07.854Z,5.5
2017-02-22T02:09:09.632Z,5.5
2017-02-22T02:10:12.581Z,5.5
2017-02-22T02:11:15.031Z,5.5
2017-02-22T02:12:17.987Z,5.5
2017-02-22T02:13:20.439Z,5.5
2017-02-22T02:14:22.896Z,5.5
2017-02-22T02:15:25.342Z,5.5
2017-02-22T02:18:33.107Z,5.5
2017-02-22T02:19:36.080Z,5.5
2017-02-22T02:20:39.063Z,5.5
2017-02-22T02:21:41.013Z,5.5
2017-02-22T02:22:43.479Z,5.5
2017-02-22T02:23:46.457Z,5.5
2017-02-22T02:24:48.748Z,5.5
2017-02-22T02:25:51.714Z,5.5
2017-02-22T02:26:54.164Z,5.5
2017-02-22T02:27:56.453Z,5.5
2017-02-22T02:28:59.414Z,5.5
2017-02-22T02:30:02.392Z,5.5
2017-02-22T02:31:04.344Z,5.5
2017-02-22T02:33:09.705Z,5.5
2017-02-22T02:34:12.152Z,5.5
2017-02-22T02:35:14.449Z,5.5
2017-02-22T02:37:20.149Z,5.5
2017-02-22T02:38:22.616Z,5.5
2017-02-22T02:39:24.910Z,5.5
2017-02-22T02:40:27.866Z,5.5
2017-02-22T02:41:30.333Z,5.5
2017-02-22T02:42:33.124Z,5.5
2017-02-22T02:43:35.582Z,5.5
2017-02-22T02:44:38.046Z,5.5
2017-02-22T02:45:41.033Z,5.5
2017-02-22T02:46:43.486Z,5.5
2017-02-22T02:47:46.315Z,5.5
2017-02-22T02:48:48.259Z,5.5
2017-02-22T02:49:51.213Z,5.5
2017-02-22T02:50:53.669Z,5.5
2017-02-22T02:52:59.559Z,5.5
2017-02-22T02:54:01.522Z,5.5
2017-02-22T02:55:03.839Z,5.5
2017-02-22T02:56:07.317Z,5.5
2017-02-22T02:57:09.292Z,5.5
2017-02-22T02:58:11.740Z,5.5
2017-02-22T02:59:14.193Z,5.5
2017-02-22T03:00:17.161Z,5.5
2017-02-22T03:01:19.615Z,5.5
2017-02-22T03:02:22.088Z,5.5
2017-02-22T03:03:24.562Z,5.5
2017-02-22T03:05:29.922Z,5.6
2017-02-22T03:06:32.899Z,5.6
2017-02-22T03:07:35.350Z,5.6
2017-02-22T03:08:37.805Z,5.6
2017-02-22T03:09:40.086Z,5.6
2017-02-22T03:10:43.063Z,5.6
2017-02-22T03:11:45.552Z,5.6
2017-02-22T03:12:47.846Z,5.6
2017-02-22T03:13:50.816Z,5.6
2017-02-22T03:14:53.104Z,5.6
2017-02-22T03:16:58.471Z,5.6
2017-02-22T03:18:00.931Z,5.6
2017-02-22T03:19:03.894Z,5.6
2017-02-22T03:20:06.185Z,5.6
2017-02-22T03:21:08.638Z,5.6
2017-02-22T03:22:11.615Z,5.6
2017-02-22T03:23:14.591Z,5.6
2017-02-22T03:24:16.537Z,5.6
2017-02-22T03:25:18.819Z,5.6
2017-02-22T03:26:21.793Z,5.6
2017-02-22T03:27:24.260Z,5.6
2017-02-22T03:28:26.731Z,5.6
2017-02-22T03:29:29.713Z,5.6
2017-02-22T03:30:32.692Z,5.6
2017-02-22T03:31:34.649Z,5.6
2017-02-22T03:32:37.113Z,5.6
2017-02-22T03:33:40.595Z,5.6
2017-02-22T03:34:42.568Z,5.6
2017-02-22T03:35:45.385Z,5.6
2017-02-22T03:36:47.845Z,5.6
2017-02-22T03:37:50.299Z,5.6
2017-02-22T03:38:52.777Z,5.6
2017-02-22T03:39:55.250Z,5.6
2017-02-22T03:40:58.213Z,5.6
2017-02-22T03:42:00.672Z,5.6
2017-02-22T03:43:03.125Z,5.6
2017-02-22T03:44:05.584Z,5.6
2017-02-22T03:45:09.077Z,5.6
2017-02-22T03:46:10.875Z,5.6
2017-02-22T03:47:13.830Z,5.6
2017-02-22T03:48:16.281Z,5.6
2017-02-22T03:49:18.575Z,5.6
2017-02-22T03:50:21.530Z,5.6
2017-02-22T03:51:23.993Z,5.6
2017-02-22T03:52:26.444Z,5.6
2017-02-22T03:53:28.951Z,5.6
2017-02-22T03:54:31.737Z,5.6
2017-02-22T03:55:34.180Z,5.6
2017-02-22T03:57:39.539Z,5.6
2017-02-22T03:58:41.994Z,5.6
2017-02-22T04:00:47.188Z,5.6
2017-02-22T04:01:50.152Z,5.6
2017-02-22T04:03:55.038Z,5.6
2017-02-22T04:04:57.496Z,5.6
2017-02-22T04:06:00.451Z,5.7
2017-02-22T04:07:02.935Z,5.6
2017-02-22T04:08:05.395Z,5.6
2017-02-22T04:09:07.862Z,5.7
2017-02-22T04:10:11.357Z,5.7
2017-02-22T04:11:13.695Z,5.7
2017-02-22T04:12:15.472Z,5.6
2017-02-22T04:13:18.433Z,5.7
2017-02-22T04:14:20.893Z,5.6
2017-02-22T04:16:26.259Z,5.6
2017-02-22T04:17:29.056Z,5.7
2017-02-22T04:18:31.524Z,5.7
2017-02-22T04:19:33.973Z,5.7
2017-02-22T04:20:36.427Z,5.7
2017-02-22T04:21:39.388Z,5.7
2017-02-22T04:22:42.367Z,5.7
2017-02-22T04:23:44.327Z,5.7
2017-02-22T05:23:12.334Z,6
2017-02-22T05:24:15.289Z,5.9
2017-02-22T05:25:18.275Z,6
2017-02-22T05:26:20.224Z,5.9
2017-02-22T05:27:27.509Z,5.9
2017-02-22T05:28:25.439Z,5.9
2017-02-22T05:29:27.727Z,6
2017-02-22T05:30:30.507Z,6
2017-02-22T05:31:33.482Z,6
2017-02-22T05:32:40.784Z,6
2017-02-22T05:33:38.720Z,6
2017-02-22T05:34:41.175Z,6
2017-02-22T05:35:43.461Z,6
2017-02-22T05:37:52.579Z,6
2017-02-22T05:38:51.341Z,6
2017-02-22T05:39:54.308Z,5.9
2017-02-22T05:40:56.588Z,6
2017-02-22T05:41:59.067Z,5.9
2017-02-22T05:43:05.782Z,6
2017-02-22T05:44:04.715Z,6.1
2017-02-22T05:45:07.168Z,6
2017-02-22T05:46:09.628Z,6
2017-02-22T05:48:18.731Z,6
2017-02-22T05:49:17.669Z,6
2017-02-22T05:52:25.438Z,6
2017-02-22T05:53:31.447Z,6.1
2017-02-22T05:54:30.378Z,6.1
2017-02-22T05:55:33.173Z,6.1
2017-02-22T05:56:35.629Z,6.1
2017-02-22T05:57:38.594Z,6.1
2017-02-22T05:58:44.777Z,6.1
2017-02-22T06:00:46.117Z,6.2
2017-02-22T06:01:48.569Z,6.3
2017-02-22T06:02:51.527Z,6.2
2017-02-22T06:03:57.711Z,6.2
2017-02-22T06:04:56.650Z,6.2
2017-02-22T06:05:59.130Z,6.2
2017-02-22T06:07:02.125Z,6.2
2017-02-22T06:08:04.594Z,6.2
2017-02-22T06:09:11.308Z,6.1
2017-02-22T06:10:09.745Z,6.2
2017-02-22T06:11:12.032Z,6.2
2017-02-22T06:12:14.995Z,6.3
2017-02-22T06:13:17.446Z,6.3
2017-02-22T06:14:23.641Z,6.3
2017-02-22T06:15:22.570Z,6.3
2017-02-22T06:16:25.557Z,6.3
2017-02-22T06:17:28.011Z,6.3
2017-02-22T06:18:30.465Z,6.3
2017-02-22T06:19:36.640Z,6.3
2017-02-22T06:20:35.579Z,6.3
2017-02-22T06:21:38.539Z,6.4
2017-02-22T06:22:41.003Z,6.4
2017-02-22T06:23:43.317Z,6.4
2017-02-22T06:24:49.929Z,6.4
2017-02-22T06:25:48.868Z,6.4
2017-02-22T06:26:51.164Z,6.4
2017-02-22T06:27:54.128Z,6.5
2017-02-22T06:28:56.589Z,6.5
2017-02-22T06:30:02.676Z,6.5
2017-02-22T06:31:02.114Z,6.6
2017-02-22T06:32:04.565Z,6.5
2017-02-22T06:33:07.026Z,6.7
2017-02-22T06:34:09.976Z,6.7
2017-02-22T06:35:15.888Z,6.7
2017-02-22T06:36:14.838Z,6.6
2017-02-22T06:37:18.343Z,6.6
2017-02-22T06:38:20.292Z,6.7
2017-02-22T06:39:22.752Z,6.6
2017-02-22T06:40:28.837Z,6.7
2017-02-22T06:41:28.279Z,6.6
2017-02-22T06:42:30.734Z,6.6
2017-02-22T06:43:33.716Z,6.7
2017-02-22T06:44:36.019Z,6.6
2017-02-22T06:45:42.102Z,6.6
2017-02-22T06:46:41.038Z,6.6
2017-02-22T06:47:44.011Z,6.6
2017-02-22T06:48:46.461Z,6.6
2017-02-22T06:49:48.910Z,6.7
2017-02-22T06:50:55.497Z,6.7
2017-02-22T06:51:54.434Z,6.7
2017-02-22T06:52:56.885Z,6.8
2017-02-22T06:53:59.375Z,6.8
2017-02-22T06:55:02.343Z,6.8
2017-02-22T06:56:08.438Z,6.8
2017-02-22T06:57:07.371Z,6.8
2017-02-22T06:58:09.715Z,6.8
2017-02-22T06:59:12.666Z,6.8
2017-02-22T07:00:15.453Z,6.8
2017-02-22T07:01:21.537Z,6.8
2017-02-22T07:02:20.466Z,6.8
2017-02-22T07:03:22.933Z,6.8
2017-02-22T07:04:25.896Z,6.8
2017-02-22T07:05:28.375Z,6.9
2017-02-22T07:06:34.464Z,6.8
2017-02-22T07:07:33.405Z,6.8
2017-02-22T07:08:36.377Z,6.8
2017-02-22T07:09:38.833Z,6.8
2017-02-22T07:10:41.283Z,6.8
2017-02-22T07:11:47.701Z,7
2017-02-22T07:12:46.646Z,6.9
2017-02-22T07:13:49.122Z,6.9
2017-02-22T07:14:52.080Z,6.8
2017-02-22T07:15:54.543Z,6.8
2017-02-22T07:17:00.619Z,7
2017-02-22T07:18:00.062Z,7
2017-02-22T07:19:02.522Z,6.9
2017-02-22T07:20:04.994Z,6.9
2017-02-22T07:21:07.464Z,6.9
2017-02-22T07:22:14.585Z,7
2017-02-22T07:23:13.013Z,7
2017-02-22T07:25:18.378Z,7
2017-02-22T07:26:20.838Z,7.1
2017-02-22T07:27:26.922Z,7
2017-02-22T07:28:25.875Z,7
2017-02-22T07:29:28.849Z,7.1
2017-02-22T07:30:31.298Z,7
2017-02-22T07:31:33.755Z,7.1
2017-02-22T07:32:40.881Z,7
2017-02-22T07:33:39.326Z,7
2017-02-22T07:34:41.775Z,7
2017-02-22T07:35:44.227Z,7.1
2017-02-22T07:36:47.014Z,7
2017-02-22T07:37:53.092Z,7
2017-02-22T07:38:52.356Z,7
2017-02-22T07:39:54.827Z,7.1
2017-02-22T07:40:57.679Z,7.1
2017-02-22T07:42:00.129Z,7
2017-02-22T07:43:06.724Z,7
2017-02-22T07:44:05.654Z,7.1
2017-02-22T07:45:07.777Z,7.1
2017-02-22T07:46:10.564Z,7.1
2017-02-22T07:48:19.557Z,7
2017-02-22T07:49:18.500Z,7.1
2017-02-22T07:50:21.471Z,7.1
2017-02-22T07:51:23.921Z,7.1
2017-02-22T07:53:32.921Z,7.1
2017-02-22T07:54:31.855Z,7.1
2017-02-22T07:55:34.310Z,7.2
2017-02-22T07:56:37.265Z,7.2
2017-02-22T07:57:39.746Z,7.2
2017-02-22T07:58:45.824Z,7.2
2017-02-22T07:59:44.779Z,7.1
2017-02-22T08:00:47.733Z,7.1
2017-02-22T08:01:50.015Z,7.2
2017-02-22T08:02:52.987Z,7.1
2017-02-22T08:03:59.078Z,7.1
2017-02-22T08:04:58.019Z,7.1
2017-02-22T08:07:03.393Z,7.1
2017-02-22T08:08:05.850Z,7.2
2017-02-22T08:09:12.803Z,7.2
2017-02-22T08:10:11.081Z,7.2
2017-02-22T08:11:13.867Z,7.2
2017-02-22T08:12:16.323Z,7.2
2017-02-22T08:13:19.290Z,7.2
2017-02-22T08:14:25.365Z,7.1
2017-02-22T08:15:24.847Z,7.2
2017-02-22T08:16:26.792Z,7.2
2017-02-22T08:17:29.746Z,7.2
2017-02-22T08:18:32.198Z,7.3
2017-02-22T08:19:38.786Z,7.3
2017-02-22T08:20:37.743Z,7.2
2017-02-22T08:21:40.199Z,7.3
2017-02-22T08:22:42.478Z,7.3
2017-02-22T08:23:45.424Z,7.3
2017-02-22T08:24:51.403Z,7.3
2017-02-22T08:25:50.841Z,7.3
2017-02-22T08:26:53.308Z,7.3
2017-02-22T08:27:56.303Z,7.3
2017-02-22T08:28:58.591Z,7.3
2017-02-22T08:30:04.669Z,7.3
2017-02-22T08:31:04.106Z,7.4
2017-02-22T08:32:07.095Z,7.3
2017-02-22T08:33:08.889Z,7.3
2017-02-22T08:34:11.840Z,7.5
2017-02-22T08:35:17.919Z,7.4
2017-02-22T08:36:16.871Z,7.4
2017-02-22T08:37:19.824Z,7.3
2017-02-22T08:38:22.272Z,7.4
2017-02-22T08:39:25.244Z,7.4
2017-02-22T08:40:31.341Z,7.5
2017-02-22T08:41:30.266Z,7.5
2017-02-22T08:42:32.735Z,7.4
2017-02-22T08:43:35.538Z,7.4
2017-02-22T08:44:37.990Z,7.4
2017-02-22T08:45:44.598Z,7.4
2017-02-22T08:46:44.051Z,7.5
2017-02-22T08:47:45.994Z,7.5
2017-02-22T08:48:48.457Z,7.5
2017-02-22T08:50:57.467Z,7.5
2017-02-22T08:51:56.932Z,7.5
2017-02-22T08:52:59.383Z,7.5
2017-02-22T08:54:01.833Z,7.5
2017-02-22T08:55:04.296Z,7.5
2017-02-22T08:56:10.880Z,7.5
2017-02-22T08:57:09.813Z,7.5
2017-02-22T08:58:12.266Z,7.5
2017-02-22T08:59:15.228Z,7.5
2017-02-22T09:00:17.889Z,7.5
2017-02-22T09:01:20.354Z,7.5
2017-02-22T09:02:22.816Z,7.6
2017-02-22T09:03:25.778Z,7.5
2017-02-22T09:04:28.230Z,7.5
2017-02-22T09:05:31.208Z,7.6
2017-02-22T09:07:36.410Z,7.6
2017-02-22T09:08:38.866Z,7.6
2017-02-22T09:09:41.331Z,7.6
2017-02-22T09:10:44.286Z,7.6
2017-02-22T09:11:46.579Z,7.6
2017-02-22T09:12:49.538Z,7.6
2017-02-22T09:13:51.825Z,7.7
2017-02-22T09:15:57.190Z,7.6
2017-02-22T09:17:00.152Z,7.6
2017-02-22T09:18:02.653Z,7.8
2017-02-22T09:19:05.115Z,7.6
2017-02-22T09:20:08.077Z,7.6
2017-02-22T09:21:10.364Z,7.6
2017-02-22T09:22:12.976Z,7.7
2017-02-22T09:23:16.315Z,7.6
2017-02-22T09:24:18.263Z,7.8
2017-02-22T09:25:21.053Z,7.7
2017-02-22T09:26:23.527Z,7.7
2017-02-22T09:27:26.323Z,7.7
2017-02-22T09:28:28.784Z,7.7
2017-02-22T09:30:34.146Z,7.7
2017-02-22T09:31:37.463Z,7.8
2017-02-22T09:32:39.418Z,7.8
2017-02-22T09:33:42.373Z,7.7
2017-02-22T09:34:44.839Z,7.8
2017-02-22T09:35:47.840Z,7.8
2017-02-22T09:36:50.651Z,7.8
2017-02-22T09:38:55.511Z,7.8
2017-02-22T09:39:57.974Z,7.8
2017-02-22T09:41:00.931Z,7.8
2017-02-22T09:42:03.385Z,7.8
2017-02-22T09:43:05.864Z,7.8
2017-02-22T09:44:08.650Z,7.8
2017-02-22T09:45:11.640Z,7.8
2017-02-22T09:46:13.928Z,7.8
2017-02-22T09:47:16.379Z,7.8
2017-02-22T09:48:19.339Z,7.9
2017-02-22T09:49:21.816Z,7.8
2017-02-22T09:50:24.794Z,7.8
2017-02-22T09:51:27.255Z,7.8
2017-02-22T09:52:29.712Z,7.9
2017-02-22T09:54:35.067Z,7.8
2017-02-22T09:55:38.026Z,7.8
2017-02-22T09:56:40.849Z,7.9
2017-02-22T09:57:43.301Z,7.8
2017-02-22T09:58:45.758Z,7.9
2017-02-22T09:59:48.610Z,7.9
2017-02-22T10:00:51.058Z,7.9
2017-02-22T10:01:53.385Z,7.9
2017-02-22T10:02:56.337Z,7.9
2017-02-22T10:03:58.800Z,7.9
2017-02-22T10:06:04.175Z,8
2017-02-22T10:07:06.634Z,8
2017-02-22T10:08:09.605Z,8
2017-02-22T10:10:15.492Z,8
2017-02-22T10:11:17.441Z,8
2017-02-22T10:12:19.908Z,7.9
2017-02-22T10:13:22.859Z,7.9
2017-02-22T10:14:25.334Z,8
2017-02-22T10:15:27.797Z,8
2017-02-22T10:16:30.750Z,8
2017-02-22T10:17:33.204Z,8
2017-02-22T10:18:35.992Z,8
2017-02-22T10:19:38.972Z,8
2017-02-22T10:20:41.423Z,8
2017-02-22T10:21:43.718Z,8
2017-02-22T10:22:46.340Z,8
2017-02-22T10:23:49.143Z,8
2017-02-22T10:24:52.098Z,8
2017-02-22T10:25:54.545Z,8.1
2017-02-22T10:26:57.014Z,8
2017-02-22T10:29:02.373Z,8.1
2017-02-22T10:30:05.327Z,8.1
2017-02-22T10:31:07.615Z,8.1
2017-02-22T10:32:10.409Z,8.1
2017-02-22T10:33:13.036Z,8.1
2017-02-22T10:34:15.492Z,8.1
2017-02-22T10:35:18.467Z,8.1
2017-02-22T10:36:20.768Z,8.1
2017-02-22T10:37:23.720Z,8.1
2017-02-22T10:38:26.170Z,8.1
2017-02-22T10:39:29.124Z,8.1
2017-02-22T10:40:31.577Z,8.1
2017-02-22T10:41:34.044Z,8.1
2017-02-22T10:42:36.994Z,8.1
2017-02-22T10:43:39.488Z,8.1
2017-02-22T10:44:41.934Z,8.2
2017-02-22T10:45:44.722Z,8.3
2017-02-22T10:46:48.208Z,8.3
2017-02-22T10:47:49.996Z,8.3
2017-02-22T10:48:53.505Z,8.3
2017-02-22T10:50:57.872Z,8.2
2017-02-22T10:52:00.824Z,8.3
2017-02-22T10:53:03.291Z,8.3
2017-02-22T10:54:06.247Z,8.2
2017-02-22T10:55:08.530Z,8.2
2017-02-22T10:56:11.848Z,8.3
2017-02-22T10:57:13.800Z,8.3
2017-02-22T10:58:16.611Z,8.3
2017-02-22T10:59:19.069Z,8.3
2017-02-22T11:00:22.029Z,8.3
2017-02-22T11:01:24.476Z,8.3
2017-02-22T11:02:27.435Z,8.3
2017-02-22T11:03:29.887Z,8.3
2017-02-22T11:04:32.841Z,8.3
2017-02-22T11:05:35.317Z,8.3
2017-02-22T11:06:37.774Z,8.3
2017-02-22T11:07:40.748Z,8.3
2017-02-22T11:08:43.228Z,8.3
2017-02-22T11:09:45.676Z,8.3
2017-02-22T11:10:48.465Z,8.3
2017-02-22T11:11:51.263Z,8.3
2017-02-22T11:12:54.054Z,8.3
2017-02-22T11:13:56.337Z,8.3
2017-02-22T11:14:59.140Z,8.3
2017-02-22T11:16:01.605Z,8.3
2017-02-22T11:17:04.570Z,8.4
2017-02-22T11:18:07.128Z,8.3
2017-02-22T11:19:09.578Z,8.4
2017-02-22T11:20:12.358Z,8.4
2017-02-22T11:21:15.143Z,8.5
2017-02-22T11:22:17.603Z,8.5
2017-02-22T11:23:20.561Z,8.5
2017-02-22T11:24:23.018Z,8.5
2017-02-22T11:25:25.991Z,8.5
2017-02-22T11:26:28.440Z,8.4
2017-02-22T11:27:30.903Z,8.4
2017-02-22T11:28:33.525Z,8.5
2017-02-22T11:29:36.149Z,8.5
2017-02-22T11:30:39.127Z,8.5
2017-02-22T11:31:41.424Z,8.5
2017-02-22T11:32:44.225Z,8.5
2017-02-22T11:33:47.016Z,8.5
2017-02-22T11:34:49.485Z,8.5
2017-02-22T11:35:52.445Z,8.6
2017-02-22T11:36:54.725Z,8.6
2017-02-22T11:37:58.743Z,8.5
2017-02-22T11:39:00.449Z,8.5
2017-02-22T11:40:02.927Z,8.6
2017-02-22T11:41:05.895Z,8.6
2017-02-22T11:42:08.345Z,8.6
2017-02-22T11:43:10.804Z,8.6
2017-02-22T11:44:13.600Z,8.6
2017-02-22T11:45:15.886Z,8.6
2017-02-22T11:46:18.859Z,8.6
2017-02-22T11:47:21.645Z,8.6
2017-02-22T11:48:24.628Z,8.7
2017-02-22T11:49:27.608Z,8.6
2017-02-22T11:50:29.559Z,8.6
2017-02-22T11:51:32.876Z,8.6
2017-02-22T11:52:35.356Z,8.6
2017-02-22T11:53:37.802Z,8.6
2017-02-22T11:54:40.257Z,8.6
2017-02-22T11:55:42.708Z,8.6
2017-02-22T11:56:45.494Z,8.6
2017-02-22T11:57:48.487Z,8.6
2017-02-22T11:58:51.293Z,8.7
2017-02-22T11:59:53.750Z,8.7
2017-02-22T12:00:56.228Z,8.7
2017-02-22T12:01:58.676Z,8.6
2017-02-22T12:03:01.466Z,8.6
2017-02-22T12:04:04.417Z,8.6
2017-02-22T12:05:07.411Z,8.6
2017-02-22T12:06:09.698Z,8.6
2017-02-22T12:07:12.152Z,8.6
2017-02-22T12:08:14.942Z,8.6
2017-02-22T12:09:17.392Z,8.7
2017-02-22T12:10:20.377Z,8.6
2017-02-22T12:11:22.827Z,8.6
2017-02-22T12:13:28.188Z,8.7
2017-02-22T12:15:33.548Z,8.8
2017-02-22T12:16:36.001Z,8.8
2017-02-22T12:17:38.781Z,8.7
2017-02-22T12:18:41.733Z,8.8
2017-02-22T12:19:44.202Z,8.8
2017-02-22T12:20:46.522Z,8.7
2017-02-22T12:21:49.503Z,8.8
2017-02-22T12:22:52.468Z,8.8
2017-02-22T12:23:54.753Z,8.7
2017-02-22T12:24:57.706Z,8.7
2017-02-22T12:26:00.202Z,8.8
2017-02-22T12:27:02.657Z,8.8
2017-02-22T12:28:05.644Z,8.8
2017-02-22T12:29:08.096Z,8.8
2017-02-22T12:30:10.723Z,8.8
2017-02-22T12:31:14.204Z,8.8
2017-02-22T12:32:16.682Z,8.8
2017-02-22T12:33:18.475Z,8.8
2017-02-22T12:34:21.431Z,8.8
2017-02-22T12:36:26.803Z,8.9
2017-02-22T12:37:30.294Z,8.8
2017-02-22T12:38:32.252Z,8.9
2017-02-22T12:39:34.706Z,8.8
2017-02-22T12:40:38.180Z,8.9
2017-02-22T12:41:40.139Z,8.8
2017-02-22T12:42:43.632Z,8.9
2017-02-22T12:43:45.599Z,8.9
2017-02-22T12:44:48.056Z,8.8
2017-02-22T12:45:50.842Z,8.8
2017-02-22T12:47:56.033Z,8.8
2017-02-22T12:48:58.652Z,8.8
2017-02-22T12:50:01.603Z,8.9
2017-02-22T12:51:04.080Z,8.9
2017-02-22T12:52:07.031Z,8.9
2017-02-22T12:53:09.312Z,8.9
2017-02-22T12:54:12.286Z,8.8
2017-02-22T12:55:14.743Z,8.9
2017-02-22T12:56:17.713Z,8.9
2017-02-22T12:57:20.180Z,8.9
2017-02-22T12:58:23.164Z,9
2017-02-22T12:59:25.622Z,8.9
2017-02-22T13:00:27.917Z,8.9
2017-02-22T13:01:30.883Z,9
2017-02-22T13:02:33.344Z,9
2017-02-22T13:03:36.314Z,8.9
2017-02-22T13:04:38.802Z,9
2017-02-22T13:05:41.449Z,9
2017-02-22T13:06:44.420Z,9
2017-02-22T13:07:46.719Z,9
2017-02-22T13:08:49.523Z,9
2017-02-22T13:09:51.976Z,9
2017-02-22T13:10:54.944Z,9
2017-02-22T13:11:57.940Z,9
2017-02-22T13:13:00.430Z,9.1
2017-02-22T13:14:02.899Z,9
2017-02-22T13:16:07.919Z,9
2017-02-22T13:17:10.600Z,9
2017-02-22T13:18:13.231Z,9.1
2017-02-22T13:19:16.020Z,9.1
2017-02-22T13:20:18.977Z,9.1
2017-02-22T13:21:21.264Z,9.1
2017-02-22T13:22:24.222Z,9.1
2017-02-22T13:23:26.686Z,9.1
2017-02-22T13:24:29.653Z,9.1
2017-02-22T13:25:32.124Z,9.1
2017-02-22T13:26:35.619Z,9.1
2017-02-22T13:27:37.581Z,9.1
2017-02-22T13:28:40.039Z,9.1
2017-02-22T13:29:42.826Z,9.1
2017-02-22T13:30:45.785Z,9.1
2017-02-22T13:31:48.249Z,9.1
2017-02-22T13:32:50.730Z,9.1
2017-02-22T13:34:56.101Z,9.1
2017-02-22T13:35:59.070Z,9.1
2017-02-22T13:37:01.518Z,9.1
2017-02-22T13:38:04.477Z,9.1
2017-02-22T13:39:06.931Z,9.1
2017-02-22T13:40:09.217Z,9.1
2017-02-22T13:41:12.171Z,9.1
2017-02-22T13:42:15.153Z,9.1
2017-02-22T13:43:17.609Z,9.1
2017-02-22T13:44:20.086Z,9.1
2017-02-22T13:45:23.040Z,9.1
2017-02-22T13:46:25.498Z,9.1
2017-02-22T13:47:28.820Z,9.1
2017-02-22T13:48:30.765Z,9.1
2017-02-22T13:49:33.718Z,9.1
2017-02-22T13:50:36.174Z,9.1
2017-02-22T13:51:38.964Z,9.1
2017-02-22T13:52:41.429Z,9.1
2017-02-22T13:53:44.389Z,9.2
2017-02-22T13:54:46.681Z,9.2
2017-02-22T13:55:49.646Z,9.2
2017-02-22T13:56:51.925Z,9.1
2017-02-22T13:57:54.883Z,9.2
2017-02-22T13:58:57.674Z,9.1
2017-02-22T14:00:00.128Z,9.2
2017-02-22T14:01:03.077Z,9.2
2017-02-22T14:02:05.367Z,9.2
2017-02-22T14:03:08.320Z,9.2
2017-02-22T14:05:13.199Z,9.2
2017-02-22T14:06:16.513Z,9.3
2017-02-22T14:07:18.969Z,9.3
2017-02-22T14:08:21.461Z,9.3
2017-02-22T14:09:24.459Z,9.3
2017-02-22T14:10:26.919Z,9.3
2017-02-22T14:11:29.397Z,9.3
2017-02-22T14:12:32.367Z,9.3
2017-02-22T14:13:34.841Z,9.3
2017-02-22T14:14:37.808Z,9.3
2017-02-22T14:15:40.304Z,9.3
2017-02-22T14:16:42.772Z,9.3
2017-02-22T14:17:45.725Z,9.3
2017-02-22T14:18:48.022Z,9.3
2017-02-22T14:19:50.987Z,9.3
2017-02-22T14:20:53.976Z,9.3
2017-02-22T14:21:56.273Z,9.3
2017-02-22T14:22:58.725Z,9.3
2017-02-22T14:24:01.704Z,9.3
2017-02-22T14:25:04.167Z,9.3
2017-02-22T14:26:06.963Z,9.4
2017-02-22T14:27:09.409Z,9.3
2017-02-22T14:28:12.204Z,9.4
2017-02-22T14:29:15.000Z,9.3
2017-02-22T14:30:17.453Z,9.4
2017-02-22T14:31:20.403Z,9.4
2017-02-22T14:32:22.854Z,9.4
2017-02-22T14:33:25.811Z,9.4
2017-02-22T14:34:28.258Z,9.4
2017-02-22T14:35:30.704Z,9.4
2017-02-22T14:36:33.658Z,9.4
2017-02-22T14:37:36.111Z,9.4
2017-02-22T14:38:39.073Z,9.4
2017-02-22T14:39:42.066Z,9.4
2017-02-22T14:40:44.545Z,9.5
2017-02-22T14:41:47.022Z,9.5
2017-02-22T14:43:52.059Z,9.4
2017-02-22T14:44:55.381Z,9.4
2017-02-22T14:45:57.837Z,9.5
2017-02-22T14:47:00.192Z,9.4
2017-02-22T14:48:03.176Z,9.5
2017-02-22T14:49:05.633Z,9.4
2017-02-22T14:50:08.093Z,9.5
2017-02-22T14:51:10.737Z,9.4
2017-02-22T14:52:13.691Z,9.4
2017-02-22T14:53:16.154Z,9.4
2017-02-22T14:54:19.112Z,9.5
2017-02-22T14:55:21.582Z,9.5
2017-02-22T14:56:24.372Z,9.5
2017-02-22T14:57:26.835Z,9.4
2017-02-22T14:58:29.792Z,9.5
2017-02-22T14:59:32.792Z,9.4
2017-02-22T15:00:34.592Z,9.4
2017-02-22T15:01:37.560Z,9.5
2017-02-22T15:02:40.516Z,9.4
2017-02-22T15:03:42.803Z,9.5
2017-02-22T15:04:45.757Z,9.5
2017-02-22T15:05:48.213Z,9.5
2017-02-22T15:06:51.008Z,9.5
2017-02-22T15:07:53.462Z,9.5
2017-02-22T15:08:56.248Z,9.5
2017-02-22T15:09:59.202Z,9.5
2017-02-22T15:11:01.654Z,9.5
2017-02-22T15:12:04.114Z,9.5
2017-02-22T15:13:07.091Z,9.5
2017-02-22T15:14:09.542Z,9.5
2017-02-22T15:15:12.344Z,9.5
2017-02-22T15:16:15.669Z,9.5
2017-02-22T15:18:20.524Z,9.5
2017-02-22T15:24:36.514Z,9.5
2017-02-22T15:36:05.380Z,9.5
2017-02-22T15:37:08.339Z,9.5
2017-02-22T15:38:11.334Z,9.5
2017-02-22T15:39:13.788Z,9.5
2017-02-22T15:40:16.238Z,9.5
2017-02-22T15:41:19.209Z,9.5
2017-02-22T15:42:21.671Z,9.5
2017-02-22T15:43:24.630Z,9.5
2017-02-22T15:44:26.916Z,9.5
2017-02-22T15:45:29.873Z,9.5
2017-02-22T15:46:32.336Z,9.5
2017-02-22T15:47:35.294Z,9.5
2017-02-22T15:48:37.746Z,9.5
2017-02-22T15:50:43.118Z,9.5
2017-02-22T15:51:46.081Z,9.5
2017-02-22T15:52:48.362Z,9.5
2017-02-22T15:53:51.322Z,9.5
2017-02-22T15:54:53.623Z,9.5
2017-02-22T15:55:56.240Z,9.5
2017-02-22T15:56:59.734Z,9.5
2017-02-22T15:58:01.605Z,9.5
2017-02-22T15:59:04.567Z,9.5
2017-02-22T16:00:07.030Z,9.6
2017-02-22T16:01:09.828Z,9.6
2017-02-22T16:02:12.809Z,9.5
2017-02-22T16:03:15.304Z,9.5
2017-02-22T16:04:18.283Z,9.5
2017-02-22T16:05:20.750Z,9.5
2017-02-22T16:06:23.210Z,9.5
2017-02-22T16:07:25.678Z,9.5
2017-02-22T16:08:28.481Z,9.5
2017-02-22T16:09:31.443Z,9.5
2017-02-22T16:10:33.901Z,9.5
2017-02-22T16:11:36.696Z,9.5
2017-02-22T16:12:39.161Z,9.5
2017-02-22T16:13:42.127Z,9.5
2017-02-22T16:14:44.427Z,9.5
2017-02-22T16:15:47.387Z,9.5
2017-02-22T16:16:49.667Z,9.5
2017-02-22T16:17:52.621Z,9.5
2017-02-22T16:18:55.075Z,9.5
2017-02-22T16:19:58.040Z,9.5
2017-02-22T16:21:00.330Z,9.5
2017-02-22T16:22:03.836Z,9.5
2017-02-22T16:23:05.798Z,9.5
2017-02-22T16:24:08.601Z,9.5
2017-02-22T16:25:11.575Z,9.5
2017-02-22T16:26:13.881Z,9.5
2017-02-22T16:27:16.862Z,9.5
2017-02-22T16:28:19.324Z,9.5
2017-02-22T16:29:21.801Z,9.5